Time;durP1;ratioP1;P1;durP2;ratioP2;P2;SDS_P1;SDS_P2;PMS_P1;PMS_P2;Temp;Humidity;BMP_temperature;BMP_pressure;BME280_temperature;BME280_humidity;BME280_pressure;Samples;Min_cycle;Max_cycle;Signal;HPM_P1;HPM_P2
2022/09/03 00:00:17;;;;;;;;;6.75;6.25;;;;;22.71;55.76;100489.03;4871458;29;45615;-69
2022/09/03 00:02:46;;;;;;;;;7.00;7.00;;;;;22.88;55.68;100503.03;4883538;29;45318;-69
2022/09/03 00:05:33;;;;;;;;;6.50;6.50;;;;;22.78;55.50;100491.25;4883368;29;45331;-69
2022/09/03 00:08:13;;;;;;;;;6.00;6.00;;;;;22.74;55.53;100486.06;4890446;29;45603;-69
2022/09/03 00:10:55;;;;;;;;;8.00;7.00;;;;;22.88;55.91;100506.59;4884735;29;45378;-69
2022/09/03 00:13:32;;;;;;;;;8.75;7.00;;;;;22.87;55.82;100504.00;4899578;29;45344;-68
2022/09/03 00:16:01;;;;;;;;;6.50;6.50;;;;;22.85;55.62;100492.41;4883210;29;45616;-69
2022/09/03 00:18:31;;;;;;;;;7.75;7.00;;;;;22.84;56.36;100497.00;4883178;29;45460;-69
2022/09/03 00:21:07;;;;;;;;;8.25;6.50;;;;;22.75;55.93;100476.91;4890388;29;45328;-69
2022/09/03 00:23:36;;;;;;;;;5.00;5.00;;;;;22.83;55.44;100495.25;4901817;29;45345;-69
2022/09/03 00:26:10;;;;;;;;;5.50;5.00;;;;;22.89;55.53;100494.72;4896004;29;45607;-69
2022/09/03 00:28:55;;;;;;;;;6.00;6.00;;;;;22.88;55.69;100494.88;4894578;29;45424;-68
2022/09/03 00:31:29;;;;;;;;;4.50;4.50;;;;;22.87;55.85;100502.19;4884749;29;45524;-69
2022/09/03 00:34:01;;;;;;;;;5.00;5.00;;;;;22.66;55.46;100464.09;4883228;29;45277;-69
2022/09/03 00:36:44;;;;;;;;;6.00;6.00;;;;;22.85;55.83;100490.53;4883940;29;45735;-69
2022/09/03 00:39:16;;;;;;;;;5.75;5.75;;;;;22.82;55.34;100485.41;4882932;29;45364;-68
2022/09/03 00:41:51;;;;;;;;;5.50;5.25;;;;;22.83;55.71;100491.69;4891397;29;45440;-69
2022/09/03 00:44:35;;;;;;;;;6.25;6.25;;;;;22.81;55.39;100491.81;4897315;29;45551;-69
2022/09/03 00:47:23;;;;;;;;;4.50;4.50;;;;;22.81;55.65;100493.69;4886051;29;45606;-69
2022/09/03 00:50:13;;;;;;;;;5.00;4.00;;;;;22.79;55.67;100496.53;4896121;29;45379;-69
2022/09/03 00:52:57;;;;;;;;;5.25;5.25;;;;;22.77;55.95;100501.28;4887061;29;45421;-69
2022/09/03 00:55:31;;;;;;;;;5.25;5.25;;;;;22.75;55.72;100504.13;4903757;29;45420;-69
2022/09/03 00:58:30;;;;;;;;;5.50;5.50;;;;;22.76;55.69;100507.69;4894675;29;45489;-69
2022/09/03 01:00:56;;;;;;;;;4.25;4.00;;;;;22.60;55.85;100502.72;4886216;29;45507;-69
2022/09/03 01:03:50;;;;;;;;;4.75;4.00;;;;;22.67;55.93;100514.81;4897445;29;45409;-69
2022/09/03 01:06:37;;;;;;;;;4.25;4.25;;;;;22.53;55.67;100491.50;4882857;29;45490;-69
2022/09/03 01:09:16;;;;;;;;;4.75;4.75;;;;;22.62;55.73;100505.31;4886031;29;46228;-68
2022/09/03 01:11:46;;;;;;;;;6.75;5.00;;;;;22.66;56.03;100507.63;4886928;29;45345;-68
2022/09/03 01:14:32;;;;;;;;;5.75;5.00;;;;;22.59;56.04;100503.72;4903766;29;45333;-69
2022/09/03 01:17:24;;;;;;;;;5.00;5.00;;;;;22.63;56.42;100513.34;4904689;29;45480;-68
2022/09/03 01:20:21;;;;;;;;;3.75;3.75;;;;;22.61;55.83;100507.16;4854674;29;45473;-69
2022/09/03 01:23:19;;;;;;;;;5.00;5.00;;;;;22.62;56.65;100508.03;4897937;29;45531;-70
2022/09/03 01:26:03;;;;;;;;;3.50;3.50;;;;;22.63;56.11;100504.31;4898712;29;45396;-69
2022/09/03 01:28:53;;;;;;;;;5.00;5.00;;;;;22.65;56.28;100507.75;4885907;29;45441;-69
2022/09/03 01:31:34;;;;;;;;;3.00;3.00;;;;;22.62;56.69;100508.03;4885439;29;46262;-69
2022/09/03 01:34:19;;;;;;;;;5.75;5.50;;;;;22.50;56.82;100488.19;4897211;29;45374;-69
2022/09/03 01:36:58;;;;;;;;;7.50;6.00;;;;;22.53;56.84;100504.25;4895176;29;45731;-68
2022/09/03 01:39:37;;;;;;;;;4.75;4.75;;;;;22.53;56.61;100505.09;4869708;29;45520;-69
2022/09/03 01:42:17;;;;;;;;;4.75;4.75;;;;;22.57;56.87;100517.47;4903708;29;45628;-69
2022/09/03 01:45:11;;;;;;;;;7.00;5.75;;;;;22.40;57.18;100485.41;4892556;29;45332;-69
2022/09/03 01:48:12;;;;;;;;;6.25;5.25;;;;;22.54;56.93;100511.44;4898191;29;45325;-69
2022/09/03 01:50:46;;;;;;;;;5.25;5.25;;;;;22.51;57.25;100512.53;4887034;29;45531;-68
2022/09/03 01:53:33;;;;;;;;;6.00;6.00;;;;;22.49;57.74;100509.09;4894946;29;45471;-69
2022/09/03 01:56:35;;;;;;;;;4.25;4.25;;;;;22.44;57.44;100508.63;4901859;29;45358;-69
2022/09/03 01:59:17;;;;;;;;;5.00;5.00;;;;;22.42;57.84;100509.75;4904090;29;45355;-69
2022/09/03 02:02:05;;;;;;;;;6.75;6.50;;;;;22.41;57.88;100510.75;4891080;29;45332;-68
2022/09/03 02:04:31;;;;;;;;;4.75;4.00;;;;;22.23;57.45;100475.97;4884802;29;45547;-68
2022/09/03 02:06:59;;;;;;;;;4.50;3.50;;;;;22.33;58.23;100501.38;4899564;29;45416;-69
2022/09/03 02:09:25;;;;;;;;;5.00;5.00;;;;;22.30;57.98;100498.97;4895129;29;45466;-69
2022/09/03 02:12:05;;;;;;;;;6.25;6.25;;;;;22.16;58.26;100481.06;4902919;29;45345;-69
2022/09/03 02:14:31;;;;;;;;;5.25;4.25;;;;;22.27;58.50;100490.16;4902610;29;48445;-68
2022/09/03 02:16:59;;;;;;;;;6.75;6.75;;;;;22.33;57.98;100495.94;4886817;29;45381;-69
2022/09/03 02:19:27;;;;;;;;;6.00;6.00;;;;;22.33;58.19;100495.09;4904013;29;45776;-69
2022/09/03 02:21:55;;;;;;;;;7.00;7.00;;;;;22.33;58.64;100503.25;4883159;29;45908;-69
2022/09/03 02:24:21;;;;;;;;;7.50;7.25;;;;;22.29;58.49;100497.22;4871468;29;46847;-69
2022/09/03 02:26:46;;;;;;;;;8.25;7.75;;;;;22.29;58.42;100504.53;4872569;29;45338;-69
2022/09/03 02:29:14;;;;;;;;;7.00;7.00;;;;;22.28;58.81;100505.47;4870700;29;45731;-69
2022/09/03 02:31:40;;;;;;;;;6.00;6.00;;;;;22.16;58.99;100486.50;4866164;29;45452;-69
2022/09/03 02:34:05;;;;;;;;;6.75;6.75;;;;;22.17;59.01;100490.94;4892887;29;47072;-69
2022/09/03 02:36:34;;;;;;;;;9.00;8.00;;;;;22.21;59.26;100499.69;4866442;29;45263;-69
2022/09/03 02:39:00;;;;;;;;;7.50;6.25;;;;;22.26;59.34;100513.75;4878408;29;45452;-68
2022/09/03 02:41:26;;;;;;;;;9.25;7.25;;;;;22.21;59.56;100507.84;4865749;29;45682;-69
2022/09/03 02:44:12;;;;;;;;;4.75;4.75;;;;;22.27;59.17;100515.50;4865733;29;45405;-66
2022/09/03 02:46:43;;;;;;;;;9.00;8.50;;;;;22.24;59.17;100504.88;4865767;29;45451;-66
2022/09/03 02:49:09;;;;;;;;;5.50;5.50;;;;;22.13;59.55;100489.47;4865841;29;45330;-66
2022/09/03 02:51:37;;;;;;;;;5.75;5.75;;;;;22.27;59.92;100512.78;4874766;29;45480;-66
2022/09/03 02:54:03;;;;;;;;;10.50;9.25;;;;;22.26;60.02;100513.75;4868476;29;45668;-66
2022/09/03 02:56:28;;;;;;;;;5.00;4.75;;;;;22.19;59.89;100504.41;4865448;29;45746;-66
2022/09/03 02:58:54;;;;;;;;;9.00;9.00;;;;;22.11;59.87;100485.16;4880469;29;45431;-66
2022/09/03 03:01:20;;;;;;;;;9.25;7.25;;;;;22.24;59.56;100509.47;4884422;29;45645;-66
2022/09/03 03:03:45;;;;;;;;;8.00;8.00;;;;;22.03;59.84;100474.94;4866559;29;48705;-66
2022/09/03 03:06:12;;;;;;;;;11.00;9.00;;;;;22.24;60.31;100510.31;4869362;29;45518;-66
2022/09/03 03:08:38;;;;;;;;;8.50;8.50;;;;;22.07;60.29;100483.69;4882926;29;45407;-66
2022/09/03 03:11:03;;;;;;;;;10.00;8.25;;;;;22.14;60.44;100499.34;4867766;29;45260;-66
2022/09/03 03:13:30;;;;;;;;;8.00;8.00;;;;;22.17;60.43;100495.53;4877290;29;45487;-66
2022/09/03 03:15:57;;;;;;;;;9.00;8.25;;;;;22.19;60.59;100505.25;4890167;29;46148;-66
2022/09/03 03:18:22;;;;;;;;;8.50;8.00;;;;;22.12;61.00;100489.59;4867239;29;46493;-66
2022/09/03 03:20:48;;;;;;;;;5.50;5.50;;;;;22.18;60.53;100508.09;4884560;29;45953;-66
2022/09/03 03:23:13;;;;;;;;;9.00;9.00;;;;;21.99;60.61;100476.22;4882724;29;47131;-66
2022/09/03 03:25:39;;;;;;;;;11.25;10.75;;;;;21.98;60.52;100477.19;4896616;29;45403;-66
2022/09/03 03:28:05;;;;;;;;;9.50;8.00;;;;;21.97;60.86;100481.78;4893510;29;45591;-66
2022/09/03 03:30:32;;;;;;;;;8.75;8.75;;;;;22.12;60.76;100503.19;4888415;29;45338;-66
2022/09/03 03:32:58;;;;;;;;;10.25;8.25;;;;;22.13;61.17;100504.91;4879209;29;47034;-66
2022/09/03 03:35:24;;;;;;;;;8.50;8.50;;;;;22.13;61.28;100500.34;4883967;29;45495;-66
2022/09/03 03:37:49;;;;;;;;;11.00;9.00;;;;;22.14;61.11;100503.94;4900504;29;45412;-66
2022/09/03 03:40:16;;;;;;;;;9.25;9.25;;;;;22.00;61.21;100486.06;4890485;29;45353;-66
2022/09/03 03:42:41;;;;;;;;;9.25;8.75;;;;;22.15;60.80;100516.53;4883347;29;46664;-66
2022/09/03 03:45:08;;;;;;;;;9.50;9.00;;;;;22.14;61.34;100510.22;4883745;29;45639;-66
2022/09/03 03:47:35;;;;;;;;;9.75;8.75;;;;;22.08;61.43;100489.00;4883553;29;45468;-66
2022/09/03 03:50:01;;;;;;;;;12.00;8.75;;;;;21.93;61.17;100468.56;4883522;29;45390;-66
2022/09/03 03:52:26;;;;;;;;;11.00;10.25;;;;;21.97;61.26;100480.91;4895564;28;45404;-66
2022/09/03 03:54:52;;;;;;;;;11.25;11.00;;;;;21.88;61.62;100473.53;4883551;29;45622;-66
2022/09/03 03:57:19;;;;;;;;;9.75;9.50;;;;;21.99;61.33;100490.66;4887058;29;45321;-66
2022/09/03 03:59:44;;;;;;;;;12.50;12.50;;;;;22.07;61.82;100508.16;4892249;29;45427;-66
2022/09/03 04:02:11;;;;;;;;;9.25;9.25;;;;;21.98;61.45;100491.63;4883384;29;45337;-66
2022/09/03 04:04:36;;;;;;;;;10.00;10.00;;;;;21.99;61.80;100487.94;4892432;29;45505;-66
2022/09/03 04:07:02;;;;;;;;;11.00;11.00;;;;;21.92;61.51;100467.72;4875405;29;45507;-66
2022/09/03 04:09:27;;;;;;;;;10.00;9.50;;;;;21.87;61.22;100461.81;4888860;29;45611;-66
2022/09/03 04:11:56;;;;;;;;;9.00;9.00;;;;;21.84;61.43;100462.91;4901070;29;46282;-66
2022/09/03 04:14:22;;;;;;;;;8.75;8.00;;;;;21.96;61.61;100480.03;4891356;29;45482;-66
2022/09/03 04:16:47;;;;;;;;;10.25;9.75;;;;;21.97;61.31;100483.63;4866420;29;45511;-66
2022/09/03 04:19:13;;;;;;;;;12.50;12.25;;;;;21.98;61.82;100488.91;4884675;29;45530;-66
2022/09/03 04:21:38;;;;;;;;;9.25;9.00;;;;;21.95;61.85;100491.91;4895197;29;45479;-66
2022/09/03 04:24:05;;;;;;;;;8.25;8.25;;;;;21.97;61.31;100491.78;4886417;29;45391;-66
2022/09/03 04:26:32;;;;;;;;;11.00;10.00;;;;;21.97;61.49;100489.91;4901978;29;45413;-66
2022/09/03 04:28:59;;;;;;;;;10.50;8.50;;;;;21.96;61.44;100484.63;4897635;29;45547;-66
2022/09/03 04:31:26;;;;;;;;;8.25;7.50;;;;;22.02;61.82;100489.53;4871501;29;47061;-66
2022/09/03 04:33:51;;;;;;;;;10.25;8.25;;;;;21.90;61.30;100468.81;4869496;29;46097;-66
2022/09/03 04:36:22;;;;;;;;;10.50;10.50;;;;;21.96;61.38;100479.19;4887033;29;45361;-66
2022/09/03 04:38:50;;;;;;;;;9.75;9.75;;;;;21.96;61.66;100492.75;4889417;29;45691;-66
2022/09/03 04:41:20;;;;;;;;;9.75;9.00;;;;;21.91;61.99;100482.28;4887974;29;48527;-66
2022/09/03 04:43:47;;;;;;;;;7.00;6.50;;;;;21.94;62.03;100484.75;4891829;29;45640;-66
2022/09/03 04:46:15;;;;;;;;;9.75;9.75;;;;;21.97;61.45;100483.63;4892184;29;45480;-66
2022/09/03 04:48:40;;;;;;;;;8.00;7.75;;;;;21.89;61.61;100473.41;4874395;29;45572;-66
2022/09/03 04:51:09;;;;;;;;;11.00;10.00;;;;;22.00;61.84;100496.94;4891730;28;45287;-66
2022/09/03 04:53:46;;;;;;;;;9.75;8.75;;;;;21.91;61.76;100497.72;4881938;29;45294;-66
2022/09/03 04:56:18;;;;;;;;;9.50;8.50;;;;;21.91;62.22;100495.88;4905106;29;45434;-66
2022/09/03 04:58:44;;;;;;;;;9.00;9.00;;;;;21.88;61.65;100506.97;4892142;29;45513;-66
2022/09/03 05:01:17;;;;;;;;;10.50;9.00;;;;;21.89;61.94;100499.72;4899695;29;47215;-66
2022/09/03 05:03:43;;;;;;;;;9.00;8.00;;;;;21.89;61.67;100510.59;4889698;29;45640;-66
2022/09/03 05:06:09;;;;;;;;;9.50;8.25;;;;;21.86;61.99;100498.09;4898252;29;45332;-66
2022/09/03 05:08:35;;;;;;;;;9.25;9.00;;;;;21.72;61.79;100474.81;4889011;29;45325;-66
2022/09/03 05:11:02;;;;;;;;;8.00;8.00;;;;;21.89;62.27;100503.28;4885634;29;45892;-66
2022/09/03 05:13:27;;;;;;;;;7.75;7.75;;;;;21.86;62.26;100505.41;4901204;29;45352;-66
2022/09/03 05:15:59;;;;;;;;;9.25;9.00;;;;;21.88;62.02;100514.28;4900492;29;45506;-66
2022/09/03 05:18:24;;;;;;;;;8.25;8.25;;;;;21.70;61.81;100495.81;4898454;29;45310;-66
2022/09/03 05:20:57;;;;;;;;;7.50;7.25;;;;;21.82;62.35;100505.66;4891991;29;46692;-66
2022/09/03 05:23:23;;;;;;;;;10.00;9.75;;;;;21.75;62.28;100495.41;4903877;29;45558;-66
2022/09/03 05:25:59;;;;;;;;;7.75;7.75;;;;;21.81;61.93;100509.34;4894411;29;45417;-66
2022/09/03 05:28:26;;;;;;;;;9.25;8.00;;;;;21.69;62.13;100482.38;4891024;29;45406;-66
2022/09/03 05:30:59;;;;;;;;;8.50;8.00;;;;;21.80;62.40;100507.66;4890785;29;47617;-66
2022/09/03 05:33:25;;;;;;;;;9.00;9.00;;;;;21.77;62.50;100498.91;4896592;29;45487;-66
2022/09/03 05:35:52;;;;;;;;;10.25;8.75;;;;;21.68;62.18;100489.63;4896704;29;45366;-66
2022/09/03 05:38:18;;;;;;;;;9.50;8.50;;;;;21.87;62.69;100523.41;4885705;29;45563;-66
2022/09/03 05:40:43;;;;;;;;;10.00;10.00;;;;;21.80;62.29;100515.78;4885076;29;45591;-69
2022/09/03 05:43:08;;;;;;;;;9.00;8.00;;;;;21.64;62.61;100497.19;4892277;29;45473;-69
2022/09/03 05:45:33;;;;;;;;;9.75;9.75;;;;;21.62;62.30;100487.44;4889933;29;45581;-68
2022/09/03 05:48:00;;;;;;;;;6.50;6.50;;;;;21.74;62.74;100524.44;4892063;29;46100;-69
2022/09/03 05:50:25;;;;;;;;;8.25;8.25;;;;;21.65;62.75;100517.03;4902635;28;45697;-69
2022/09/03 05:52:51;;;;;;;;;9.50;9.00;;;;;21.65;62.91;100519.75;4897556;29;45248;-69
2022/09/03 05:55:17;;;;;;;;;10.50;9.50;;;;;21.62;62.48;100518.19;4885435;29;45342;-69
2022/09/03 05:57:42;;;;;;;;;8.25;8.00;;;;;21.50;62.53;100499.31;4885393;29;45262;-69
2022/09/03 06:00:09;;;;;;;;;7.75;7.25;;;;;21.59;62.98;100517.56;4891647;29;45342;-69
2022/09/03 06:02:34;;;;;;;;;10.75;9.25;;;;;21.57;62.34;100519.56;4897512;29;45367;-69
2022/09/03 06:05:00;;;;;;;;;10.00;8.00;;;;;21.69;62.99;100539.41;4896939;29;45452;-69
2022/09/03 06:07:26;;;;;;;;;8.75;8.75;;;;;21.70;62.87;100557.41;4896782;29;45490;-68
2022/09/03 06:09:51;;;;;;;;;7.50;7.50;;;;;21.68;62.46;100554.81;4867780;29;47343;-68
2022/09/03 06:12:16;;;;;;;;;9.25;8.50;;;;;21.70;62.50;100552.88;4892160;29;45316;-68
2022/09/03 06:14:42;;;;;;;;;9.00;9.00;;;;;21.66;62.99;100548.66;4890869;29;45500;-69
2022/09/03 06:17:10;;;;;;;;;9.00;9.00;;;;;21.57;62.68;100538.56;4884971;29;45524;-69
2022/09/03 06:19:35;;;;;;;;;8.00;7.00;;;;;21.52;63.03;100547.09;4884579;29;45657;-68
2022/09/03 06:22:00;;;;;;;;;8.25;8.25;;;;;21.44;62.66;100527.81;4901899;29;45509;-68
2022/09/03 06:24:28;;;;;;;;;11.50;10.50;;;;;21.45;63.22;100551.22;4870707;29;45328;-70
2022/09/03 06:26:56;;;;;;;;;12.25;11.75;;;;;21.36;62.93;100533.00;4896775;28;45477;-71
2022/09/03 06:29:22;;;;;;;;;14.75;11.25;;;;;21.43;62.95;100548.66;4896423;28;45915;-70
2022/09/03 06:31:49;;;;;;;;;11.00;9.25;;;;;21.39;62.82;100530.88;4883633;29;45384;-71
2022/09/03 06:34:17;;;;;;;;;12.25;10.00;;;;;21.42;63.25;100541.50;4893342;28;45641;-71
2022/09/03 06:36:43;;;;;;;;;8.75;8.75;;;;;21.54;63.30;100569.53;4895848;28;45324;-71
2022/09/03 06:39:09;;;;;;;;;10.00;10.00;;;;;21.33;62.75;100534.09;4870801;29;48270;-70
2022/09/03 06:41:34;;;;;;;;;10.75;9.50;;;;;21.36;62.54;100536.56;4865501;29;45366;-71
2022/09/03 06:44:10;;;;;;;;;8.00;7.50;;;;;21.48;63.13;100552.88;4888330;29;45553;-71
2022/09/03 06:46:37;;;;;;;;;9.75;9.75;;;;;21.41;62.88;100553.34;4883598;29;45496;-71
2022/09/03 06:49:03;;;;;;;;;10.75;10.25;;;;;21.50;63.19;100565.38;4897357;29;45667;-71
2022/09/03 06:51:30;;;;;;;;;12.75;12.25;;;;;21.58;62.62;100576.44;4888429;29;45415;-71
2022/09/03 06:54:04;;;;;;;;;11.00;9.50;;;;;21.42;62.76;100556.94;4884275;29;45561;-71
2022/09/03 06:56:31;;;;;;;;;12.00;12.00;;;;;21.43;63.39;100559.53;4888001;29;45730;-71
2022/09/03 06:58:58;;;;;;;;;11.00;11.00;;;;;21.39;62.69;100554.47;4899838;29;45427;-71
2022/09/03 07:01:29;;;;;;;;;9.75;9.75;;;;;21.37;63.26;100554.59;4889091;29;45399;-70
2022/09/03 07:03:57;;;;;;;;;11.00;9.00;;;;;21.54;62.92;100579.56;4904246;28;45635;-70
2022/09/03 07:06:41;;;;;;;;;10.00;9.00;;;;;21.41;62.71;100550.63;4899885;28;46341;-70
2022/09/03 07:09:08;;;;;;;;;15.25;12.00;;;;;21.61;63.25;100581.63;4895143;28;45570;-70
2022/09/03 07:11:35;;;;;;;;;10.75;9.75;;;;;21.48;62.77;100561.03;4883096;28;47187;-70
2022/09/03 07:14:02;;;;;;;;;11.75;10.75;;;;;21.50;62.75;100565.38;4889369;28;45418;-70
2022/09/03 07:16:35;;;;;;;;;9.00;9.00;;;;;21.60;63.15;100579.91;4897308;29;45439;-74
2022/09/03 07:19:03;;;;;;;;;10.00;9.75;;;;;21.38;63.02;100550.88;4894973;28;46066;-74
2022/09/03 07:21:30;;;;;;;;;12.50;9.25;;;;;21.44;62.58;100553.09;4898932;29;45591;-73
2022/09/03 07:23:56;;;;;;;;;12.75;10.25;;;;;21.57;62.77;100574.72;4883472;29;45358;-78
2022/09/03 07:26:25;;;;;;;;;11.75;10.75;;;;;21.56;62.89;100572.13;4876510;29;45412;-71
2022/09/03 07:29:22;;;;;;;;;12.25;9.50;;;;;21.61;62.76;100595.19;4886285;28;46400;-74
2022/09/03 08:31:45;;;;;;;;;;;;;;;;;;;;;
2022/09/03 09:31:19;;;;;;;;;6.00;5.00;;;;;22.70;60.78;100611.59;4885282;29;45350;-73
2022/09/03 09:34:04;;;;;;;;;;;;;;;;;;;;;
2022/09/03 09:44:01;;;;;;;;;4.50;4.50;;;;;22.96;60.12;100633.00;4770649;29;46009;-76
2022/09/03 09:57:49;;;;;;;;;5.00;4.00;;;;;23.36;60.76;100670.41;4781825;29;45846;-75
2022/09/03 10:28:51;;;;;;;;;4.75;4.75;;;;;23.44;59.08;100698.69;4639568;30;46335;-69
2022/09/03 10:32:04;;;;;;;;;7.00;6.25;;;;;23.43;59.02;100696.97;4701267;29;45755;-71
2022/09/03 10:35:11;;;;;;;;;5.00;5.00;;;;;23.42;58.96;100705.25;4816034;29;45389;-71
2022/09/03 10:37:58;;;;;;;;;7.00;5.00;;;;;23.12;58.99;100658.81;4875327;29;45547;-71
2022/09/03 10:40:34;;;;;;;;;5.00;5.00;;;;;23.15;59.04;100654.94;4885916;29;45506;-71
2022/09/03 10:42:59;;;;;;;;;7.00;6.00;;;;;23.45;59.46;100711.31;4892180;29;45733;-71
2022/09/03 10:45:35;;;;;;;;;5.75;5.75;;;;;23.34;58.58;100688.72;4893278;29;45706;-71
2022/09/03 10:48:31;;;;;;;;;7.00;7.00;;;;;23.39;59.59;100694.63;4900153;29;47218;-71
2022/09/03 10:51:25;;;;;;;;;6.00;5.50;;;;;23.30;58.57;100678.13;4899077;29;47011;-71
2022/09/03 10:54:12;;;;;;;;;6.00;5.00;;;;;23.49;58.88;100699.16;4877886;29;45312;-71
2022/09/03 10:56:53;;;;;;;;;4.50;4.50;;;;;23.45;59.13;100694.97;4887737;29;45511;-71
2022/09/03 10:59:26;;;;;;;;;5.25;5.00;;;;;23.51;59.03;100700.91;4868119;29;45472;-71
2022/09/03 11:01:52;;;;;;;;;6.00;4.00;;;;;23.54;58.23;100700.59;4900016;28;46050;-71
2022/09/03 11:04:45;;;;;;;;;4.00;4.00;;;;;23.55;58.34;100696.88;4900795;29;45515;-71
2022/09/03 11:07:19;;;;;;;;;4.00;4.00;;;;;23.42;57.76;100669.84;4883285;29;45510;-71
2022/09/03 11:10:00;;;;;;;;;4.75;4.75;;;;;23.59;57.44;100696.50;4894106;29;45331;-71
2022/09/03 11:12:35;;;;;;;;;4.75;4.75;;;;;23.44;57.48;100666.00;4898670;28;47730;-71
2022/09/03 11:15:30;;;;;;;;;4.00;4.00;;;;;23.61;57.58;100688.19;4899683;29;45378;-70
2022/09/03 11:18:19;;;;;;;;;4.25;3.25;;;;;23.62;58.07;100689.91;4885572;28;45384;-71
2022/09/03 11:20:48;;;;;;;;;5.00;4.50;;;;;23.40;58.35;100653.66;4876112;29;45646;-71
2022/09/03 11:23:16;;;;;;;;;3.00;3.00;;;;;23.29;57.71;100634.69;4882454;29;47238;-71
2022/09/03 11:25:53;;;;;;;;;4.50;4.00;;;;;23.45;57.30;100658.69;4894160;29;45352;-71
2022/09/03 11:28:27;;;;;;;;;4.00;2.75;;;;;23.68;57.29;100700.25;4893253;29;45399;-71
2022/09/03 11:31:20;;;;;;;;;2.25;2.25;;;;;23.70;57.07;100690.06;4887891;29;45400;-71
2022/09/03 11:33:55;;;;;;;;;3.00;3.00;;;;;23.44;57.06;100649.66;4881264;29;46396;-71
2022/09/03 11:36:33;;;;;;;;;2.50;2.50;;;;;23.56;56.73;100671.38;4896273;29;45651;-71
2022/09/03 11:38:59;;;;;;;;;4.00;3.00;;;;;23.57;56.33;100673.97;4878129;29;45683;-71
2022/09/03 11:41:27;;;;;;;;;4.50;3.00;;;;;23.42;56.57;100648.06;4881316;29;45626;-71
2022/09/03 11:43:53;;;;;;;;;3.75;3.00;;;;;23.63;56.83;100669.84;4879345;29;47349;-71
2022/09/03 11:46:22;;;;;;;;;3.50;3.50;;;;;23.74;56.13;100682.50;4897612;29;46310;-71
2022/09/03 11:48:51;;;;;;;;;3.75;3.75;;;;;23.76;56.50;100678.66;4879567;29;45487;-71
2022/09/03 11:51:25;;;;;;;;;4.00;4.00;;;;;23.80;56.28;100684.69;4885981;29;45620;-71
2022/09/03 11:54:23;;;;;;;;;2.25;2.25;;;;;23.81;56.44;100686.41;4898933;29;45562;-71
2022/09/03 11:56:50;;;;;;;;;2.50;2.50;;;;;23.81;56.32;100700.03;4899293;29;45360;-71
2022/09/03 11:59:22;;;;;;;;;2.50;2.50;;;;;23.64;55.96;100677.88;4873109;29;45495;-71
2022/09/03 12:02:26;;;;;;;;;4.00;2.75;;;;;23.64;55.71;100675.16;4886379;29;45473;-71
2022/09/03 12:04:51;;;;;;;;;4.00;3.00;;;;;23.73;55.89;100686.22;4842124;29;45652;-71
2022/09/03 12:07:16;;;;;;;;;2.25;2.25;;;;;23.77;55.92;100704.91;4884761;29;46744;-71
2022/09/03 12:10:02;;;;;;;;;3.75;3.00;;;;;23.71;56.76;100690.97;4884283;29;45490;-71
2022/09/03 12:12:44;;;;;;;;;1.50;1.50;;;;;23.77;57.13;100698.56;4885000;29;45456;-71
2022/09/03 12:15:18;;;;;;;;;2.50;1.75;;;;;23.67;57.26;100685.78;4888691;29;45730;-71
2022/09/03 12:18:19;;;;;;;;;5.25;2.25;;;;;23.60;57.38;100661.94;4877486;29;45370;-71
2022/09/03 12:21:01;;;;;;;;;4.25;3.25;;;;;23.74;56.82;100688.81;4882641;29;45486;-71
2022/09/03 12:23:53;;;;;;;;;1.00;1.00;;;;;23.79;56.50;100711.06;4898048;29;45406;-71
2022/09/03 12:26:23;;;;;;;;;0.00;0.00;;;;;23.60;55.77;100678.28;4885551;29;45509;-71
2022/09/03 12:28:57;;;;;;;;;0.50;0.50;;;;;23.79;55.96;100710.19;4894966;29;47331;-71
2022/09/03 12:31:31;;;;;;;;;1.00;0.00;;;;;23.67;56.23;100698.53;4898254;29;45608;-71
2022/09/03 12:34:02;;;;;;;;;1.25;0.00;;;;;23.73;55.27;100708.03;4898280;29;45518;-71
2022/09/03 12:36:42;;;;;;;;;0.00;0.00;;;;;23.57;56.18;100681.25;4898114;28;45986;-71
2022/09/03 12:39:24;;;;;;;;;0.00;0.00;;;;;23.73;56.07;100713.47;4892814;29;45559;-71
2022/09/03 12:41:55;;;;;;;;;0.00;0.00;;;;;23.64;55.92;100705.13;4884141;29;45383;-71
2022/09/03 12:44:30;;;;;;;;;0.00;0.00;;;;;23.57;56.63;100689.44;4900041;29;45275;-71
2022/09/03 12:47:04;;;;;;;;;0.00;0.00;;;;;23.72;56.20;100707.16;4889518;29;45497;-71
2022/09/03 12:49:37;;;;;;;;;1.00;1.00;;;;;23.62;56.44;100695.34;4898392;29;45378;-71
2022/09/03 12:52:12;;;;;;;;;0.00;0.00;;;;;23.62;56.99;100693.50;4886053;29;45537;-71
2022/09/03 12:54:47;;;;;;;;;1.00;1.00;;;;;23.77;57.01;100713.09;4901177;29;45465;-71
2022/09/03 12:57:20;;;;;;;;;1.00;1.00;;;;;23.76;57.19;100702.31;4888113;29;45525;-71
2022/09/03 12:59:49;;;;;;;;;1.00;1.00;;;;;23.77;57.15;100698.56;4897222;29;45615;-71
2022/09/03 13:02:29;;;;;;;;;0.25;0.25;;;;;23.63;57.29;100678.88;4894473;29;45825;-71
2022/09/03 13:04:55;;;;;;;;;1.00;1.00;;;;;23.55;57.19;100664.19;4890834;29;45408;-71
2022/09/03 13:07:28;;;;;;;;;0.25;0.25;;;;;23.58;56.69;100672.09;4901420;29;46843;-71
2022/09/03 13:10:02;;;;;;;;;1.50;1.00;;;;;23.65;56.55;100679.59;4897419;29;45686;-71
2022/09/03 13:12:33;;;;;;;;;0.25;0.25;;;;;23.79;56.52;100707.47;4888446;29;45424;-71
2022/09/03 13:15:06;;;;;;;;;0.00;0.00;;;;;23.65;56.48;100678.72;4895425;29;45596;-71
2022/09/03 13:18:09;;;;;;;;;1.00;1.00;;;;;23.87;56.44;100718.59;4888684;29;45626;-71
2022/09/03 13:20:40;;;;;;;;;2.00;2.00;;;;;23.91;56.87;100713.75;4894667;28;45511;-71
2022/09/03 13:23:10;;;;;;;;;1.25;1.00;;;;;23.92;56.63;100712.72;4896699;28;45499;-71
2022/09/03 13:25:53;;;;;;;;;1.00;1.00;;;;;23.89;56.63;100707.56;4888086;28;45447;-71
2022/09/03 13:28:27;;;;;;;;;0.50;0.50;;;;;23.75;56.19;100687.81;4878201;29;47145;-71
2022/09/03 13:30:59;;;;;;;;;0.00;0.00;;;;;23.92;55.89;100704.56;4897287;29;45551;-71
2022/09/03 13:33:36;;;;;;;;;1.00;1.00;;;;;23.79;55.03;100682.94;4893991;29;45623;-71
2022/09/03 13:36:17;;;;;;;;;0.75;0.75;;;;;23.82;54.90;100690.88;4901039;28;45417;-71
2022/09/03 13:38:49;;;;;;;;;0.00;0.00;;;;;23.81;54.87;100687.28;4893356;29;46443;-71
2022/09/03 13:41:34;;;;;;;;;0.00;0.00;;;;;24.00;54.68;100705.59;4866086;29;45391;-71
2022/09/03 13:44:11;;;;;;;;;0.00;0.00;;;;;24.04;54.38;100717.09;4898372;29;45552;-71
2022/09/03 13:46:44;;;;;;;;;1.00;0.00;;;;;24.05;53.83;100707.91;4899473;29;45881;-71
2022/09/03 13:52:52;;;;;;;;;0.75;0.75;;;;;24.04;53.52;100719.84;4865373;29;45703;-71
2022/09/03 13:55:22;;;;;;;;;0.00;0.00;;;;;24.06;53.75;100723.28;4885713;29;45395;-71
2022/09/03 13:58:04;;;;;;;;;1.00;0.00;;;;;24.05;53.39;100737.91;4900081;29;45394;-71
2022/09/03 14:00:52;;;;;;;;;0.00;0.00;;;;;24.04;53.16;100717.97;4896436;29;46377;-71
2022/09/03 14:03:31;;;;;;;;;0.00;0.00;;;;;24.03;53.00;100713.50;4900203;29;45728;-71
2022/09/03 14:06:48;;;;;;;;;0.00;0.00;;;;;24.03;53.30;100716.22;4894052;28;45311;-71
2022/09/03 14:09:42;;;;;;;;;0.00;0.00;;;;;24.04;53.12;100722.56;4871624;29;45757;-71
2022/09/03 14:12:30;;;;;;;;;1.00;1.00;;;;;24.03;53.64;100720.81;4858808;29;47824;-71
2022/09/03 14:15:02;;;;;;;;;0.00;0.00;;;;;24.07;52.70;100721.41;4895947;28;46037;-70
2022/09/03 14:17:39;;;;;;;;;0.00;0.00;;;;;24.07;53.05;100722.25;4894978;28;45523;-71
2022/09/03 14:20:18;;;;;;;;;0.00;0.00;;;;;24.08;52.90;100718.53;4896812;28;45497;-73
2022/09/03 14:22:58;;;;;;;;;0.75;0.75;;;;;24.10;52.97;100718.41;4900806;28;46383;-73
2022/09/03 14:25:25;;;;;;;;;0.25;0.25;;;;;24.12;53.15;100714.53;4893715;29;45633;-73
2022/09/03 14:27:52;;;;;;;;;0.00;0.00;;;;;24.13;53.95;100709.94;4899570;28;45523;-71
2022/09/03 14:30:29;;;;;;;;;1.00;1.00;;;;;24.11;53.60;100711.97;4872027;29;45534;-71
2022/09/03 14:33:35;;;;;;;;;1.75;0.75;;;;;24.17;53.81;100714.13;4895843;29;45556;-71
2022/09/03 14:36:06;;;;;;;;;1.00;1.00;;;;;24.17;53.68;100716.84;4855271;29;45630;-73
2022/09/03 14:39:02;;;;;;;;;0.50;0.50;;;;;24.17;53.48;100705.94;4898188;28;45464;-73
2022/09/03 14:41:51;;;;;;;;;0.50;0.50;;;;;24.14;53.84;100704.38;4896654;29;45590;-71
2022/09/03 14:44:37;;;;;;;;;1.00;0.75;;;;;24.20;53.72;100711.13;4892403;29;48228;-71